Accord, Massachusetts
Current Conditions -  °F | °C
As of 6:55 AM on Thursday 29 Jan 2015 (Local Time) from KGHG Reporting Station
Clear Clear  
Wind Chill: -3°   Ceiling: Unl
Heat Index:   Visibility: 10mi
Dew Point:   Wind: 6mph
Humidity: 85%   Direction: 270°W
Pressure: 30.3"   Gusts: NA
Location:  42.17°N, 70.88°W
Report Text: KGHG 291155Z AUTO 27005KT 10SM CLR M14/M16 A3030 RMK AO2
Loading
Personal Weather Stations






























Interactive Weather Map New forecast layout! Learn more

10-Day Weather Forecast

Advertisements
Track Severe Weather on mobile